createdAt,value
2022-12-11T00:00:59.942Z,96999.56
2022-12-11T00:02:01.863Z,97000.66
2022-12-11T00:03:04.342Z,96998.75
2022-12-11T00:04:06.031Z,96993.44
2022-12-11T00:05:08.417Z,97000.06
2022-12-11T00:06:13.644Z,96986.66
2022-12-11T00:07:15.313Z,96981.88
2022-12-11T00:08:17.038Z,96973.09
2022-12-11T00:09:19.735Z,96979.41
2022-12-11T00:10:21.443Z,96965.69
2022-12-11T00:11:23.807Z,96945.34
2022-12-11T00:12:25.519Z,96924.28
2022-12-11T00:13:27.469Z,96912.53
2022-12-11T00:14:29.697Z,96914.91
2022-12-11T00:15:31.431Z,96911.41
2022-12-11T00:16:33.197Z,96913.00
2022-12-11T00:17:34.944Z,96924.09
2022-12-11T00:18:36.979Z,96925.00
2022-12-11T00:19:38.686Z,96928.66
2022-12-11T00:20:40.644Z,96930.28
2022-12-11T00:21:42.474Z,96931.81
2022-12-11T00:22:44.195Z,96927.94
2022-12-11T00:23:45.873Z,96916.66
2022-12-11T00:24:47.572Z,96909.34
2022-12-11T00:25:49.748Z,96910.44
2022-12-11T00:26:51.460Z,96913.31
2022-12-11T00:27:53.123Z,96908.78
2022-12-11T00:28:57.184Z,96895.53
2022-12-11T00:29:58.835Z,96887.38
2022-12-11T00:31:07.528Z,96869.66
2022-12-11T00:32:09.261Z,96876.81
2022-12-11T00:33:11.801Z,96870.22
2022-12-11T00:34:13.567Z,96867.50
2022-12-11T00:35:15.263Z,96863.00
2022-12-11T00:36:23.108Z,96846.91
2022-12-11T00:37:24.896Z,96852.47
2022-12-11T00:38:26.675Z,96836.94
2022-12-11T00:39:28.363Z,96839.06
2022-12-11T00:40:30.032Z,96827.00
2022-12-11T00:41:32.305Z,96840.72
2022-12-11T00:42:33.977Z,96843.59
2022-12-11T00:43:35.863Z,96856.03
2022-12-11T00:44:37.706Z,96899.34
2022-12-11T00:45:42.402Z,96913.06
2022-12-11T00:46:44.127Z,96930.47
2022-12-11T00:47:45.827Z,96931.41
2022-12-11T00:48:49.954Z,96948.28
2022-12-11T00:49:51.663Z,96936.91
2022-12-11T00:50:53.422Z,96919.50
2022-12-11T00:51:55.113Z,96926.91
2022-12-11T00:52:56.773Z,96930.09
2022-12-11T00:53:58.472Z,96923.47
2022-12-11T00:55:00.157Z,96915.56
2022-12-11T00:56:01.821Z,96904.72
2022-12-11T00:57:03.598Z,96896.50
2022-12-11T00:58:05.912Z,96909.44
2022-12-11T00:59:07.666Z,96900.94
2022-12-11T01:00:10.170Z,96912.31
2022-12-11T01:01:21.318Z,96902.31
2022-12-11T01:02:23.080Z,96873.81
2022-12-11T01:03:24.774Z,96869.09
2022-12-11T01:04:26.797Z,96870.03
2022-12-11T01:05:28.804Z,96879.66
2022-12-11T01:06:30.573Z,96876.28
2022-12-11T01:07:32.240Z,96868.13
2022-12-11T01:08:38.466Z,96877.16
2022-12-11T01:09:59.111Z,96882.97
2022-12-11T01:11:10.359Z,96880.34
2022-12-11T01:12:11.894Z,96876.91
2022-12-11T01:13:13.438Z,96884.50
2022-12-11T01:14:15.004Z,96888.72
2022-12-11T01:15:16.767Z,96897.13
2022-12-11T01:16:18.496Z,96898.06
2022-12-11T01:17:20.203Z,96885.88
2022-12-11T01:18:22.040Z,96866.88
2022-12-11T01:19:23.696Z,96870.13
2022-12-11T01:20:26.495Z,96871.97
2022-12-11T01:21:28.224Z,96879.06
2022-12-11T01:22:30.490Z,96869.53
2022-12-11T01:23:32.179Z,96854.00
2022-12-11T01:24:33.839Z,96857.19
2022-12-11T01:25:38.269Z,96859.22
2022-12-11T01:26:40.004Z,96863.19
2022-12-11T01:27:41.679Z,96862.97
2022-12-11T01:28:44.171Z,96851.94
2022-12-11T01:29:45.829Z,96850.38
2022-12-11T01:30:47.618Z,96847.75
2022-12-11T01:31:49.343Z,96847.47
2022-12-11T01:32:51.039Z,96841.72
2022-12-11T01:33:55.226Z,96852.84
2022-12-11T01:34:56.886Z,96864.19
2022-12-11T01:35:58.555Z,96847.81
2022-12-11T01:37:00.220Z,96857.34
2022-12-11T01:38:01.861Z,96846.81
2022-12-11T01:39:04.182Z,96857.56
2022-12-11T01:40:07.306Z,96856.22
2022-12-11T01:41:09.523Z,96851.28
2022-12-11T01:42:17.671Z,96838.41
2022-12-11T01:43:19.448Z,96824.59
2022-12-11T01:44:21.363Z,96816.22
2022-12-11T01:45:30.730Z,96827.34
2022-12-11T01:46:34.625Z,96847.34
2022-12-11T01:47:36.383Z,96832.75
2022-12-11T01:48:42.211Z,96784.28
2022-12-11T01:49:44.204Z,96781.56
2022-12-11T01:51:06.183Z,96772.69
2022-12-11T01:52:16.368Z,96781.59
2022-12-11T01:53:25.140Z,96796.59
2022-12-11T01:54:28.438Z,96783.16
2022-12-11T01:55:30.108Z,96771.91
2022-12-11T01:56:34.169Z,96769.06
2022-12-11T01:57:40.464Z,96786.78
2022-12-11T01:58:47.787Z,96768.56
2022-12-11T01:59:49.489Z,96710.88
2022-12-11T02:00:52.715Z,96696.41
2022-12-11T02:01:59.405Z,96684.88
2022-12-11T02:03:01.157Z,96675.97
2022-12-11T02:04:03.404Z,96679.16
2022-12-11T02:05:06.282Z,96691.28
2022-12-11T02:06:37.963Z,96709.75
2022-12-11T02:07:52.780Z,96718.72
2022-12-11T02:08:54.527Z,96718.22
2022-12-11T02:09:56.418Z,96722.69
2022-12-11T02:11:21.108Z,96726.97
2022-12-11T02:12:41.591Z,96724.31
2022-12-11T02:13:48.729Z,96733.53
2022-12-11T02:14:52.993Z,96727.22
2022-12-11T02:16:29.950Z,96725.38
2022-12-11T02:17:56.024Z,96710.63
2022-12-11T02:18:57.668Z,96719.31
2022-12-11T02:20:16.992Z,96718.75
2022-12-11T02:21:34.617Z,96738.06
2022-12-11T02:23:04.361Z,96734.38
2022-12-11T02:24:27.161Z,96703.19
2022-12-11T02:25:37.102Z,96724.06
2022-12-11T02:27:00.241Z,96737.25
2022-12-11T02:28:11.050Z,96715.59
2022-12-11T02:29:26.275Z,96727.50
2022-12-11T02:30:28.746Z,96730.94
2022-12-11T02:31:36.570Z,96743.59
2022-12-11T02:32:59.128Z,96743.06
2022-12-11T02:34:29.426Z,96742.53
2022-12-11T02:35:38.103Z,96780.00
2022-12-11T02:36:48.430Z,96760.47
2022-12-11T02:37:56.397Z,96736.97
2022-12-11T02:39:01.466Z,96759.66
2022-12-11T02:40:04.938Z,96755.97
2022-12-11T02:41:08.293Z,96750.44
2022-12-11T02:42:13.056Z,96752.03
2022-12-11T02:43:16.908Z,96745.97
2022-12-11T02:44:27.183Z,96712.97
2022-12-11T02:45:29.795Z,96708.22
2022-12-11T02:46:34.899Z,96717.44
2022-12-11T02:47:39.603Z,96720.13
2022-12-11T02:48:42.140Z,96725.13
2022-12-11T02:49:47.849Z,96708.25
2022-12-11T02:50:52.781Z,96698.19
2022-12-11T02:51:57.034Z,96706.88
2022-12-11T02:53:03.051Z,96720.88
2022-12-11T02:54:07.553Z,96725.66
2022-12-11T02:55:13.032Z,96717.16
2022-12-11T02:56:26.130Z,96703.13
2022-12-11T02:57:40.503Z,96711.63
2022-12-11T02:58:52.703Z,96721.09
2022-12-11T02:59:57.151Z,96722.13
2022-12-11T03:00:58.886Z,96712.41
2022-12-11T03:02:01.251Z,96711.09
2022-12-11T03:03:03.219Z,96701.84
2022-12-11T03:04:05.050Z,96697.91
2022-12-11T03:05:07.528Z,96692.63
2022-12-11T03:06:14.920Z,96701.38
2022-12-11T03:07:26.539Z,96678.66
2022-12-11T03:08:28.250Z,96660.97
2022-12-11T03:09:29.977Z,96684.97
2022-12-11T03:10:31.688Z,96688.41
2022-12-11T03:11:33.382Z,96679.16
2022-12-11T03:12:39.108Z,96718.28
2022-12-11T03:13:42.736Z,96716.16
2022-12-11T03:14:45.024Z,96731.47
2022-12-11T03:16:03.935Z,96720.69
2022-12-11T03:17:15.359Z,96721.47
2022-12-11T03:18:35.285Z,96732.03
2022-12-11T03:19:45.980Z,96739.72
2022-12-11T03:21:04.675Z,96736.81
2022-12-11T03:22:16.267Z,96721.47
2022-12-11T03:23:30.795Z,96736.31
2022-12-11T03:24:46.351Z,96741.84
2022-12-11T03:25:55.802Z,96746.59
2022-12-11T03:27:11.191Z,96748.44
2022-12-11T03:28:19.807Z,96757.97
2022-12-11T03:29:25.734Z,96763.75
2022-12-11T03:30:29.052Z,96757.44
2022-12-11T03:31:42.414Z,96749.50
2022-12-11T03:32:50.350Z,96757.72
2022-12-11T03:33:56.303Z,96757.19
2022-12-11T03:35:05.414Z,96777.00
2022-12-11T03:36:31.252Z,96772.25
2022-12-11T03:37:36.615Z,96760.09
2022-12-11T03:38:49.259Z,96757.19
2022-12-11T03:39:54.687Z,96768.03
2022-12-11T03:41:00.930Z,96767.78
2022-12-11T03:42:07.096Z,96767.22
2022-12-11T03:43:11.090Z,96765.94
2022-12-11T03:44:13.715Z,96762.19
2022-12-11T03:45:17.725Z,96753.75
2022-12-11T03:46:22.545Z,96743.72
2022-12-11T03:47:27.227Z,96731.56
2022-12-11T03:48:34.232Z,96725.22
2022-12-11T03:49:40.285Z,96726.53
2022-12-11T03:50:43.681Z,96727.84
2022-12-11T03:51:48.332Z,96736.03
2022-12-11T03:52:51.110Z,96738.16
2022-12-11T03:53:53.404Z,96737.34
2022-12-11T03:55:00.383Z,96742.13
2022-12-11T03:56:04.524Z,96743.44
2022-12-11T03:57:08.407Z,96737.63
2022-12-11T03:58:10.102Z,96741.59
2022-12-11T03:59:12.329Z,96738.72
2022-12-11T04:00:16.902Z,96738.16
2022-12-11T04:01:18.592Z,96745.28
2022-12-11T04:02:20.480Z,96729.69
2022-12-11T04:03:22.211Z,96725.19
2022-12-11T04:04:23.957Z,96720.44
2022-12-11T04:05:25.674Z,96731.56
2022-12-11T04:06:27.564Z,96741.59
2022-12-11T04:07:29.230Z,96742.41
2022-12-11T04:08:30.960Z,96742.91
2022-12-11T04:09:33.045Z,96745.31
2022-12-11T04:10:34.749Z,96750.06
2022-12-11T04:11:36.506Z,96761.69
2022-12-11T04:12:38.164Z,96767.25
2022-12-11T04:13:41.195Z,96771.22
2022-12-11T04:15:01.538Z,96771.47
2022-12-11T04:16:03.274Z,96768.56
2022-12-11T04:17:05.552Z,96748.50
2022-12-11T04:18:27.422Z,96754.31
2022-12-11T04:19:47.839Z,96764.31
2022-12-11T04:21:08.252Z,96764.06
2022-12-11T04:22:32.793Z,96769.63
2022-12-11T04:23:52.966Z,96756.91
2022-12-11T04:24:54.636Z,96754.56
2022-12-11T04:26:14.648Z,96749.00
2022-12-11T04:27:36.049Z,96746.38
2022-12-11T04:28:37.933Z,96735.50
2022-12-11T04:29:39.581Z,96728.38
2022-12-11T04:30:41.427Z,96730.22
2022-12-11T04:31:43.272Z,96727.88
2022-12-11T04:32:45.157Z,96727.84
2022-12-11T04:33:47.541Z,96723.66
2022-12-11T04:34:49.225Z,96726.78
2022-12-11T04:35:50.889Z,96727.84
2022-12-11T04:36:52.552Z,96745.81
2022-12-11T04:37:54.318Z,96745.28
2022-12-11T04:38:56.072Z,96735.25
2022-12-11T04:39:57.745Z,96736.25
2022-12-11T04:41:08.298Z,96747.59
2022-12-11T04:42:09.959Z,96746.28
2022-12-11T04:43:11.644Z,96759.50
2022-12-11T04:44:13.343Z,96777.50
2022-12-11T04:45:15.215Z,96779.09
2022-12-11T04:46:21.216Z,96785.69
2022-12-11T04:47:23.213Z,96784.91
2022-12-11T04:48:24.921Z,96787.56
2022-12-11T04:49:26.578Z,96786.00
2022-12-11T04:50:28.317Z,96772.75
2022-12-11T04:51:30.137Z,96771.97
2022-12-11T04:52:31.844Z,96768.56
2022-12-11T04:53:34.173Z,96777.56
2022-12-11T04:54:36.110Z,96772.25
2022-12-11T04:55:39.381Z,96770.41
2022-12-11T04:56:41.031Z,96764.88
2022-12-11T04:57:42.799Z,96771.19
2022-12-11T04:58:45.550Z,96766.94
2022-12-11T04:59:47.924Z,96783.34
2022-12-11T05:00:49.865Z,96784.44
2022-12-11T05:01:52.505Z,96783.09
2022-12-11T05:02:54.265Z,96794.72
2022-12-11T05:03:56.280Z,96806.63
2022-12-11T05:04:57.976Z,96808.75
2022-12-11T05:05:59.631Z,96803.47
2022-12-11T05:07:01.756Z,96800.28
2022-12-11T05:08:03.869Z,96812.19
2022-12-11T05:09:05.543Z,96815.88
2022-12-11T05:10:07.920Z,96805.81
2022-12-11T05:11:12.231Z,96786.53
2022-12-11T05:12:13.904Z,96779.91
2022-12-11T05:13:15.597Z,96757.44
2022-12-11T05:14:17.402Z,96772.50
2022-12-11T05:15:19.052Z,96777.00
2022-12-11T05:16:20.795Z,96776.75
2022-12-11T05:17:22.929Z,96771.72
2022-12-11T05:18:25.265Z,96782.56
2022-12-11T05:19:27.708Z,96778.88
2022-12-11T05:20:29.401Z,96780.44
2022-12-11T05:21:35.020Z,96770.94
2022-12-11T05:22:38.022Z,96775.69
2022-12-11T05:23:40.048Z,96778.84
2022-12-11T05:24:41.919Z,96775.44
2022-12-11T05:25:43.619Z,96767.50
2022-12-11T05:26:45.385Z,96773.31
2022-12-11T05:27:47.040Z,96777.81
2022-12-11T05:28:54.273Z,96771.75
2022-12-11T05:29:59.420Z,96763.31
2022-12-11T05:31:05.021Z,96789.19
2022-12-11T05:32:07.965Z,96794.47
2022-12-11T05:33:09.628Z,96797.91
2022-12-11T05:34:11.428Z,96804.53
2022-12-11T05:35:13.344Z,96823.06
2022-12-11T05:36:22.320Z,96832.53
2022-12-11T05:37:23.983Z,96823.56
2022-12-11T05:38:25.912Z,96806.63
2022-12-11T05:39:27.587Z,96815.91
2022-12-11T05:40:29.331Z,96823.31
2022-12-11T05:41:32.892Z,96826.22
2022-12-11T05:42:34.772Z,96836.78
2022-12-11T05:43:37.238Z,96816.13
2022-12-11T05:44:38.917Z,96817.19
2022-12-11T05:45:40.588Z,96821.91
2022-12-11T05:46:42.339Z,96825.09
2022-12-11T05:47:44.093Z,96821.91
2022-12-11T05:48:48.283Z,96838.28
2022-12-11T05:49:49.954Z,96831.16
2022-12-11T05:50:59.446Z,96836.69
2022-12-11T05:52:01.135Z,96840.66
2022-12-11T05:53:02.918Z,96828.72
2022-12-11T05:54:05.370Z,96835.34
2022-12-11T05:55:07.477Z,96834.56
2022-12-11T05:56:13.465Z,96841.97
2022-12-11T05:57:15.144Z,96841.97
2022-12-11T05:58:16.818Z,96835.09
2022-12-11T05:59:19.867Z,96843.25
2022-12-11T06:00:21.596Z,96846.69
2022-12-11T06:01:30.367Z,96842.19
2022-12-11T06:02:34.614Z,96825.78
2022-12-11T06:03:36.352Z,96839.00
2022-12-11T06:04:38.056Z,96837.66
2022-12-11T06:05:41.801Z,96847.72
2022-12-11T06:06:43.998Z,96824.97
2022-12-11T06:07:45.732Z,96856.72
2022-12-11T06:08:51.346Z,96857.22
2022-12-11T06:09:53.063Z,96866.50
2022-12-11T06:10:54.758Z,96868.84
2022-12-11T06:11:56.416Z,96872.03
2022-12-11T06:12:58.065Z,96867.00
2022-12-11T06:14:01.575Z,96880.50
2022-12-11T06:15:05.215Z,96874.66
2022-12-11T06:16:08.769Z,96896.66
2022-12-11T06:17:10.580Z,96901.97
2022-12-11T06:18:12.353Z,96899.31
2022-12-11T06:19:16.929Z,96912.28
2022-12-11T06:20:18.743Z,96913.88
2022-12-11T06:21:26.745Z,96910.22
2022-12-11T06:22:28.433Z,96907.84
2022-12-11T06:23:30.085Z,96902.31
2022-12-11T06:24:31.829Z,96900.22
2022-12-11T06:25:33.680Z,96895.97
2022-12-11T06:26:35.333Z,96897.28
2022-12-11T06:27:37.023Z,96910.03
2022-12-11T06:28:39.059Z,96907.66
2022-12-11T06:29:41.029Z,96909.78
2022-12-11T06:30:42.685Z,96907.94
2022-12-11T06:31:44.395Z,96910.84
2022-12-11T06:32:46.067Z,96911.91
2022-12-11T06:33:48.294Z,96905.28
2022-12-11T06:34:50.022Z,96907.41
2022-12-11T06:35:52.232Z,96898.38
2022-12-11T06:36:53.916Z,96897.88
2022-12-11T06:37:56.118Z,96901.84
2022-12-11T06:38:57.839Z,96893.88
2022-12-11T06:39:59.613Z,96901.56
2022-12-11T06:41:04.945Z,96899.16
2022-12-11T06:42:06.594Z,96893.88
2022-12-11T06:43:08.305Z,96910.81
2022-12-11T06:44:10.022Z,96903.88
2022-12-11T06:45:12.046Z,96903.34
2022-12-11T06:46:16.993Z,96902.25
2022-12-11T06:47:18.694Z,96902.22
2022-12-11T06:48:20.494Z,96902.97
2022-12-11T06:49:22.284Z,96898.19
2022-12-11T06:50:24.019Z,96898.97
2022-12-11T06:51:25.699Z,96893.97
2022-12-11T06:52:30.347Z,96900.88
2022-12-11T06:53:32.044Z,96896.88
2022-12-11T06:54:33.699Z,96891.56
2022-12-11T06:55:36.462Z,96905.00
2022-12-11T06:56:38.205Z,96897.84
2022-12-11T06:57:40.012Z,96892.81
2022-12-11T06:58:43.337Z,96902.03
2022-12-11T06:59:45.555Z,96905.72
2022-12-11T07:00:47.340Z,96899.06
2022-12-11T07:01:49.164Z,96901.44
2022-12-11T07:02:51.452Z,96906.44
2022-12-11T07:03:55.041Z,96905.13
2022-12-11T07:04:56.699Z,96913.00
2022-12-11T07:06:02.431Z,96913.53
2022-12-11T07:07:04.163Z,96915.66
2022-12-11T07:08:07.492Z,96901.88
2022-12-11T07:09:10.170Z,96912.22
2022-12-11T07:10:12.115Z,96904.72
2022-12-11T07:11:15.944Z,96926.13
2022-12-11T07:12:17.827Z,96918.69
2022-12-11T07:13:19.484Z,96917.53
2022-12-11T07:14:21.283Z,96918.47
2022-12-11T07:15:22.944Z,96908.69
2022-12-11T07:16:25.054Z,96900.94
2022-12-11T07:17:26.718Z,96918.91
2022-12-11T07:18:29.059Z,96916.19
2022-12-11T07:19:31.199Z,96921.41
2022-12-11T07:20:32.852Z,96921.31
2022-12-11T07:21:34.513Z,96922.31
2022-12-11T07:22:40.347Z,96921.25
2022-12-11T07:23:44.904Z,96919.59
2022-12-11T07:24:46.598Z,96916.59
2022-12-11T07:25:48.302Z,96925.59
2022-12-11T07:26:50.040Z,96934.75
2022-12-11T07:27:51.724Z,96933.16
2022-12-11T07:28:53.486Z,96928.84
2022-12-11T07:29:55.902Z,96932.56
2022-12-11T07:30:57.600Z,96927.50
2022-12-11T07:31:59.418Z,96931.47
2022-12-11T07:33:01.437Z,96916.03
2022-12-11T07:34:05.439Z,96927.09
2022-12-11T07:35:07.443Z,96914.59
2022-12-11T07:36:11.314Z,96916.19
2022-12-11T07:37:12.972Z,96919.59
2022-12-11T07:38:14.645Z,96920.38
2022-12-11T07:39:16.362Z,96928.28
2022-12-11T07:40:18.130Z,96935.66
2022-12-11T07:41:19.865Z,96938.22
2022-12-11T07:42:21.561Z,96934.78
2022-12-11T07:43:23.231Z,96940.28
2022-12-11T07:44:24.889Z,96938.09
2022-12-11T07:45:26.713Z,96938.91
2022-12-11T07:46:31.128Z,96939.81
2022-12-11T07:47:33.724Z,96935.53
2022-12-11T07:48:36.415Z,96937.31
2022-12-11T07:49:38.426Z,96923.81
2022-12-11T07:50:40.136Z,96938.38
2022-12-11T07:51:43.623Z,96938.19
2022-12-11T07:52:45.529Z,96949.44
2022-12-11T07:53:49.515Z,96950.34
2022-12-11T07:54:51.209Z,96944.91
2022-12-11T07:55:52.915Z,96926.47
2022-12-11T07:56:54.603Z,96932.97
2022-12-11T07:57:56.267Z,96930.09
2022-12-11T07:59:00.611Z,96932.69
2022-12-11T08:00:02.336Z,96933.69
2022-12-11T08:01:04.050Z,96932.53
2022-12-11T08:02:05.870Z,96929.22
2022-12-11T08:03:07.560Z,96939.31
2022-12-11T08:04:12.084Z,96943.22
2022-12-11T08:05:13.925Z,96932.75
2022-12-11T08:06:16.576Z,96935.81
2022-12-11T08:07:18.287Z,96942.41
2022-12-11T08:08:20.343Z,96943.41
2022-12-11T08:09:22.815Z,96943.63
2022-12-11T08:10:24.515Z,96947.19
2022-12-11T08:11:26.433Z,96941.09
2022-12-11T08:12:28.110Z,96939.47
2022-12-11T08:13:29.796Z,96938.56
2022-12-11T08:14:31.489Z,96938.97
2022-12-11T08:15:33.965Z,96941.28
2022-12-11T08:16:35.762Z,96943.06
2022-12-11T08:17:40.204Z,96943.94
2022-12-11T08:18:42.912Z,96942.94
2022-12-11T08:19:44.573Z,96939.75
2022-12-11T08:20:46.310Z,96932.50
2022-12-11T08:21:48.072Z,96917.84
2022-12-11T08:22:52.344Z,96923.09
2022-12-11T08:23:56.753Z,96920.34
2022-12-11T08:24:58.697Z,96920.56
2022-12-11T08:26:04.210Z,96916.25
2022-12-11T08:27:06.023Z,96905.88
2022-12-11T08:28:07.748Z,96914.22
2022-12-11T08:29:10.190Z,96913.50
2022-12-11T08:30:12.158Z,96919.84
2022-12-11T08:31:15.987Z,96918.44
2022-12-11T08:32:18.874Z,96918.66
2022-12-11T08:33:20.567Z,96925.41
2022-12-11T08:34:22.394Z,96919.50
2022-12-11T08:35:24.187Z,96927.44
2022-12-11T08:36:26.318Z,96927.63
2022-12-11T08:37:28.139Z,96926.81
2022-12-11T08:38:30.363Z,96918.25
2022-12-11T08:39:32.098Z,96925.09
2022-12-11T08:40:33.767Z,96921.53
2022-12-11T08:41:35.434Z,96906.06
2022-12-11T08:42:37.245Z,96911.31
2022-12-11T08:43:39.373Z,96928.72
2022-12-11T08:44:41.417Z,96925.94
2022-12-11T08:45:43.128Z,96919.25
2022-12-11T08:46:44.860Z,96931.13
2022-12-11T08:47:46.556Z,96926.88
2022-12-11T08:48:48.430Z,96930.44
2022-12-11T08:49:50.093Z,96932.50
2022-12-11T08:50:51.813Z,96930.94
2022-12-11T08:51:53.475Z,96931.72
2022-12-11T08:52:55.193Z,96931.03
2022-12-11T08:53:58.515Z,96931.53
2022-12-11T08:55:00.209Z,96933.09
2022-12-11T08:56:10.466Z,96943.97
2022-12-11T08:57:12.164Z,96948.19
2022-12-11T08:58:13.852Z,96962.44
2022-12-11T08:59:16.840Z,96965.13
2022-12-11T09:00:18.862Z,96965.28
2022-12-11T09:01:26.350Z,96972.41
2022-12-11T09:02:28.114Z,96981.69
2022-12-11T09:03:29.809Z,96977.03
2022-12-11T09:04:31.490Z,96971.63
2022-12-11T09:05:33.143Z,96975.38
2022-12-11T09:06:34.950Z,96977.94
2022-12-11T09:07:38.089Z,96972.22
2022-12-11T09:08:40.426Z,96968.66
2022-12-11T09:09:42.130Z,96967.88
2022-12-11T09:10:43.964Z,96968.88
2022-12-11T09:11:46.593Z,96977.84
2022-12-11T09:12:48.267Z,96965.28
2022-12-11T09:13:50.269Z,96967.94
2022-12-11T09:14:52.044Z,96961.72
2022-12-11T09:15:53.791Z,96960.63
2022-12-11T09:16:55.505Z,96960.13
2022-12-11T09:17:57.204Z,96965.06
2022-12-11T09:19:00.006Z,96963.88
2022-12-11T09:20:02.327Z,96958.03
2022-12-11T09:21:13.547Z,96941.72
2022-12-11T09:22:15.313Z,96918.91
2022-12-11T09:23:16.984Z,96948.06
2022-12-11T09:24:18.710Z,96943.56
2022-12-11T09:25:20.429Z,96935.06
2022-12-11T09:26:22.979Z,96931.66
2022-12-11T09:27:24.733Z,96927.50
2022-12-11T09:28:26.620Z,96929.56
2022-12-11T09:29:28.301Z,96932.63
2022-12-11T09:30:30.036Z,96932.97
2022-12-11T09:31:34.971Z,96917.34
2022-12-11T09:32:36.714Z,96912.78
2022-12-11T09:33:39.417Z,96919.22
2022-12-11T09:34:41.078Z,96931.03
2022-12-11T09:35:43.340Z,96928.97
2022-12-11T09:36:45.068Z,96926.34
2022-12-11T09:37:46.745Z,96930.75
2022-12-11T09:38:48.904Z,96930.94
2022-12-11T09:39:50.606Z,96918.84
2022-12-11T09:40:52.287Z,96921.69
2022-12-11T09:42:00.048Z,96926.44
2022-12-11T09:43:12.693Z,96917.16
2022-12-11T09:44:32.456Z,96927.88
2022-12-11T09:45:34.209Z,96919.38
2022-12-11T09:46:36.844Z,96919.38
2022-12-11T09:47:44.424Z,96915.63
2022-12-11T09:48:48.280Z,96906.22
2022-12-11T09:49:57.092Z,96900.09
2022-12-11T09:51:01.128Z,96897.56
2022-12-11T09:52:15.140Z,96904.94
2022-12-11T09:53:22.963Z,96896.13
2022-12-11T09:54:24.687Z,96892.22
2022-12-11T09:55:36.338Z,96895.34
2022-12-11T09:57:14.781Z,96891.72
2022-12-11T09:58:39.267Z,96895.72
2022-12-11T10:00:05.703Z,96895.44
2022-12-11T10:01:27.129Z,96900.09
2022-12-11T10:02:43.836Z,96900.56
2022-12-11T10:04:01.886Z,96902.44
2022-12-11T10:05:20.250Z,96893.16
2022-12-11T10:06:38.402Z,96901.78
2022-12-11T10:07:52.039Z,96888.31
2022-12-11T10:09:03.551Z,96884.41
2022-12-11T10:10:22.679Z,96889.47
2022-12-11T10:11:56.766Z,96877.38
2022-12-11T10:13:02.944Z,96879.50
2022-12-11T10:14:13.647Z,96888.34
2022-12-11T10:15:39.863Z,96881.50
2022-12-11T10:16:45.380Z,96880.22
2022-12-11T10:17:47.864Z,96858.31
2022-12-11T10:18:50.183Z,96870.00
2022-12-11T10:19:52.478Z,96854.13
2022-12-11T10:20:55.017Z,96854.97
2022-12-11T10:21:59.096Z,96855.97
2022-12-11T10:23:02.207Z,96853.94
2022-12-11T10:24:06.135Z,96854.94
2022-12-11T10:25:17.980Z,96855.28
2022-12-11T10:26:22.656Z,96853.28
2022-12-11T10:27:31.562Z,96856.94
2022-12-11T10:28:33.387Z,96852.03
2022-12-11T10:29:35.122Z,96842.44
2022-12-11T10:30:38.381Z,96846.25
2022-12-11T10:31:59.195Z,96834.28
2022-12-11T10:33:27.016Z,96834.75
2022-12-11T10:34:40.150Z,96836.97
2022-12-11T10:35:44.795Z,96834.94
2022-12-11T10:36:47.217Z,96832.41
2022-12-11T10:37:48.909Z,96826.44
2022-12-11T10:38:50.868Z,96826.63
2022-12-11T10:39:52.649Z,96830.09
2022-12-11T10:41:17.871Z,96829.63
2022-12-11T10:42:22.461Z,96831.81
2022-12-11T10:43:44.450Z,96826.81
2022-12-11T10:45:01.047Z,96828.22
2022-12-11T10:46:03.996Z,96831.19
2022-12-11T10:47:10.623Z,96828.22
2022-12-11T10:48:13.357Z,96813.88
2022-12-11T10:49:27.915Z,96824.63
2022-12-11T10:50:29.723Z,96825.28
2022-12-11T10:51:31.320Z,96829.53
2022-12-11T10:52:39.192Z,96823.09
2022-12-11T10:53:43.375Z,96819.47
2022-12-11T10:54:48.967Z,96822.66
2022-12-11T10:55:50.882Z,96812.72
2022-12-11T10:56:54.119Z,96804.97
2022-12-11T10:58:04.453Z,96822.00
2022-12-11T10:59:06.901Z,96823.75
2022-12-11T11:00:30.085Z,96822.78
2022-12-11T11:01:32.993Z,96817.59
2022-12-11T11:02:38.645Z,96814.59
2022-12-11T11:04:20.299Z,96811.16
2022-12-11T11:05:34.743Z,96809.56
2022-12-11T11:06:36.531Z,96814.13
2022-12-11T11:07:38.359Z,96823.56
2022-12-11T11:08:44.215Z,96816.31
2022-12-11T11:09:46.241Z,96818.88
2022-12-11T11:11:06.209Z,96814.94
2022-12-11T11:12:24.762Z,96819.34
2022-12-11T11:13:29.084Z,96814.91
2022-12-11T11:14:30.829Z,96814.94
2022-12-11T11:15:33.023Z,96803.28
2022-12-11T11:16:39.006Z,96807.38
2022-12-11T11:17:54.241Z,96800.44
2022-12-11T11:18:58.278Z,96793.03
2022-12-11T11:20:12.172Z,96794.44
2022-12-11T11:21:19.140Z,96789.69
2022-12-11T11:22:20.841Z,96794.91
2022-12-11T11:23:24.005Z,96786.66
2022-12-11T11:24:36.888Z,96791.25
2022-12-11T11:25:38.644Z,96781.13
2022-12-11T11:27:11.635Z,96786.63
2022-12-11T11:28:05.972Z,96779.53
2022-12-11T11:29:26.399Z,96777.50
2022-12-11T11:30:35.015Z,96770.56
2022-12-11T11:31:37.063Z,96769.63
2022-12-11T11:32:41.443Z,96776.84
2022-12-11T11:34:06.161Z,96776.66
2022-12-11T11:35:11.686Z,96782.03
2022-12-11T11:36:42.976Z,96771.31
2022-12-11T11:37:57.209Z,96771.78
2022-12-11T11:39:23.489Z,96772.09
2022-12-11T11:40:39.597Z,96771.50
2022-12-11T11:41:52.077Z,96766.16
2022-12-11T11:43:07.589Z,96762.09
2022-12-11T11:44:15.091Z,96759.72
2022-12-11T11:45:24.523Z,96763.84
2022-12-11T11:46:36.706Z,96769.84
2022-12-11T11:47:43.464Z,96758.19
2022-12-11T11:49:11.803Z,96750.19
2022-12-11T11:50:27.868Z,96767.34
2022-12-11T11:51:38.987Z,96751.75
2022-12-11T11:52:48.856Z,96761.81
2022-12-11T11:53:52.906Z,96767.97
2022-12-11T11:55:02.274Z,96769.09
2022-12-11T11:56:35.173Z,96747.84
2022-12-11T11:57:54.269Z,96745.47
2022-12-11T11:59:08.591Z,96757.75
2022-12-11T12:00:28.869Z,96749.72
2022-12-11T12:01:35.000Z,96757.75
2022-12-11T12:02:37.012Z,96748.94
2022-12-11T12:03:38.709Z,96745.31
2022-12-11T12:04:40.515Z,96746.25
2022-12-11T12:06:04.539Z,96747.66
2022-12-11T12:07:35.377Z,96748.59
2022-12-11T12:08:40.097Z,96758.81
2022-12-11T12:09:41.729Z,96758.19
2022-12-11T12:11:16.044Z,96755.97
2022-12-11T12:12:34.413Z,96748.59
2022-12-11T12:14:43.690Z,96756.63
2022-12-11T12:15:48.904Z,96762.56
2022-12-11T12:17:08.868Z,96758.81
2022-12-11T12:18:22.880Z,96753.28
2022-12-11T12:19:46.351Z,96752.66
2022-12-11T12:20:53.745Z,96753.16
2022-12-11T12:21:55.973Z,96750.16
2022-12-11T12:23:25.502Z,96739.78
2022-12-11T12:24:49.588Z,96743.06
2022-12-11T12:26:02.337Z,96746.53
2022-12-11T12:27:51.583Z,96749.69
2022-12-11T12:29:06.004Z,96746.06
2022-12-11T12:30:22.116Z,96748.84
2022-12-11T12:31:24.863Z,96740.34
2022-12-11T12:32:41.059Z,96746.00
2022-12-11T12:33:58.034Z,96758.44
2022-12-11T12:35:05.821Z,96760.81
2022-12-11T12:36:32.543Z,96768.53
2022-12-11T12:38:00.461Z,96760.69
2022-12-11T12:39:07.956Z,96760.34
2022-12-11T12:40:24.950Z,96764.44
2022-12-11T12:41:32.820Z,96759.56
2022-12-11T12:42:52.947Z,96754.84
2022-12-11T12:44:12.090Z,96757.34
2022-12-11T12:45:25.140Z,96747.75
2022-12-11T12:46:51.715Z,96743.19
2022-12-11T12:47:53.710Z,96746.47
2022-12-11T12:48:59.073Z,96741.63
2022-12-11T12:50:01.802Z,96737.53
2022-12-11T12:51:04.614Z,96747.56
2022-12-11T12:52:13.462Z,96753.41
2022-12-11T12:53:23.121Z,96745.22
2022-12-11T12:54:27.955Z,96735.69